createdAt,value
2023-05-11T00:03:44.053Z,100318.06
2023-05-11T00:07:48.809Z,100313.03
2023-05-11T00:11:55.105Z,100321.59
2023-05-11T00:15:58.543Z,100310.75
2023-05-11T00:20:01.239Z,100307.66
2023-05-11T00:24:04.248Z,100309.00
2023-05-11T00:28:08.616Z,100313.72
2023-05-11T00:32:11.840Z,100315.50
2023-05-11T00:36:15.059Z,100318.84
2023-05-11T00:40:18.059Z,100312.81
2023-05-11T00:44:22.547Z,100318.78
2023-05-11T00:48:25.403Z,100313.22
2023-05-11T00:52:28.639Z,100313.94
2023-05-11T00:56:32.712Z,100316.28
2023-05-11T01:00:38.047Z,100308.16
2023-05-11T01:04:41.147Z,100308.28
2023-05-11T01:08:49.375Z,100308.28
2023-05-11T01:13:01.097Z,100300.25
2023-05-11T01:17:12.204Z,100308.22
2023-05-11T01:21:18.801Z,100310.28
2023-05-11T01:25:36.480Z,100308.16
2023-05-11T01:30:18.577Z,100301.09
2023-05-11T01:34:26.242Z,100298.84
2023-05-11T01:38:34.403Z,100295.31
2023-05-11T01:42:43.499Z,100304.72
2023-05-11T01:46:47.600Z,100302.56
2023-05-11T01:50:52.899Z,100296.84
2023-05-11T01:54:57.593Z,100298.13
2023-05-11T01:59:01.772Z,100299.03
2023-05-11T02:03:07.714Z,100305.56
2023-05-11T02:07:14.676Z,100304.00
2023-05-11T02:11:18.652Z,100300.50
2023-05-11T02:15:23.334Z,100296.44
2023-05-11T02:19:28.085Z,100303.91
2023-05-11T02:23:34.167Z,100294.38
2023-05-11T02:27:37.311Z,100302.91
2023-05-11T02:31:46.020Z,100295.22
2023-05-11T02:35:50.494Z,100297.63
2023-05-11T02:40:00.462Z,100293.78
2023-05-11T02:44:06.790Z,100299.34
2023-05-11T02:48:17.496Z,100295.22
2023-05-11T02:52:21.888Z,100302.47
2023-05-11T02:56:27.378Z,100296.81
2023-05-11T03:00:30.777Z,100299.16
2023-05-11T03:04:34.908Z,100295.91
2023-05-11T03:08:38.112Z,100298.91
2023-05-11T03:12:42.217Z,100295.88
2023-05-11T03:16:46.062Z,100303.53
2023-05-11T03:20:50.021Z,100307.06
2023-05-11T03:24:53.608Z,100310.19
2023-05-11T03:29:00.426Z,100304.59
2023-05-11T03:33:03.363Z,100305.56
2023-05-11T03:37:08.385Z,100308.38
2023-05-11T03:41:14.675Z,100318.22
2023-05-11T03:45:22.091Z,100318.50
2023-05-11T03:49:27.412Z,100328.25
2023-05-11T03:53:31.987Z,100330.16
2023-05-11T03:57:35.660Z,100331.13
2023-05-11T04:01:40.300Z,100334.47
2023-05-11T04:05:43.439Z,100329.69
2023-05-11T04:09:46.792Z,100337.16
2023-05-11T04:13:49.570Z,100332.28
2023-05-11T04:17:54.266Z,100333.97
2023-05-11T04:21:57.299Z,100331.06
2023-05-11T04:26:01.249Z,100334.94
2023-05-11T04:30:04.525Z,100333.47
2023-05-11T04:34:09.767Z,100340.22
2023-05-11T04:38:12.913Z,100345.75
2023-05-11T04:42:16.166Z,100346.59
2023-05-11T04:46:19.378Z,100344.09
2023-05-11T04:50:24.068Z,100349.97
2023-05-11T04:54:27.177Z,100364.97
2023-05-11T04:58:30.363Z,100353.22
2023-05-11T05:02:33.228Z,100359.00
2023-05-11T05:06:38.488Z,100354.63
2023-05-11T05:10:41.486Z,100372.88
2023-05-11T05:14:44.293Z,100356.09
2023-05-11T05:18:47.128Z,100361.69
2023-05-11T05:22:51.389Z,100365.53
2023-05-11T05:26:54.227Z,100374.06
2023-05-11T05:30:57.466Z,100366.66
2023-05-11T05:35:01.158Z,100378.00
2023-05-11T05:39:10.030Z,100387.28
2023-05-11T05:43:12.942Z,100384.25
2023-05-11T05:47:16.052Z,100387.50
2023-05-11T05:51:19.070Z,100389.19
2023-05-11T05:55:24.168Z,100385.16
2023-05-11T05:59:27.118Z,100378.97
2023-05-11T06:03:30.662Z,100400.50
2023-05-11T06:07:33.858Z,100392.69
2023-05-11T06:11:38.421Z,100387.72
2023-05-11T06:15:43.716Z,100386.94
2023-05-11T06:19:47.479Z,100405.06
2023-05-11T06:23:50.667Z,100396.50
2023-05-11T06:27:55.095Z,100395.59
2023-05-11T06:32:06.415Z,100387.50
2023-05-11T06:36:10.062Z,100392.31
2023-05-11T06:40:13.763Z,100393.69
2023-05-11T06:44:18.376Z,100385.38
2023-05-11T06:48:23.553Z,100386.66
2023-05-11T06:52:26.237Z,100392.25
2023-05-11T06:56:29.295Z,100392.53
2023-05-11T07:00:33.861Z,100389.81
2023-05-11T07:04:37.519Z,100389.31
2023-05-11T07:08:41.464Z,100395.44
2023-05-11T07:12:44.548Z,100387.59
2023-05-11T07:16:52.940Z,100393.75
2023-05-11T07:20:56.064Z,100398.84
2023-05-11T07:24:59.143Z,100398.53
2023-05-11T07:29:02.382Z,100393.09
2023-05-11T07:33:07.287Z,100395.97
2023-05-11T07:37:10.443Z,100403.72
2023-05-11T07:41:13.411Z,100398.25
2023-05-11T07:45:16.710Z,100396.88
2023-05-11T07:49:28.168Z,100407.75
2023-05-11T07:53:38.652Z,100402.13
2023-05-11T07:57:42.305Z,100419.94
2023-05-11T08:01:45.285Z,100395.16
2023-05-11T08:05:49.814Z,100410.72
2023-05-11T08:09:52.961Z,100399.72
2023-05-11T08:13:55.873Z,100400.22
2023-05-11T08:17:59.175Z,100391.28
2023-05-11T08:22:03.777Z,100405.50
2023-05-11T08:26:06.987Z,100395.88
2023-05-11T08:30:11.932Z,100386.84
2023-05-11T08:34:19.609Z,100388.72
2023-05-11T08:38:24.053Z,100382.00
2023-05-11T08:42:29.554Z,100388.78
2023-05-11T08:46:36.828Z,100397.13
2023-05-11T08:50:41.948Z,100383.66
2023-05-11T08:54:46.796Z,100388.44
2023-05-11T08:58:52.608Z,100389.50
2023-05-11T09:02:57.929Z,100400.53
2023-05-11T09:07:01.782Z,100391.25
2023-05-11T09:11:09.400Z,100392.09
2023-05-11T09:15:13.432Z,100373.41
2023-05-11T09:19:17.863Z,100383.44
2023-05-11T09:23:26.667Z,100392.13
2023-05-11T09:27:34.371Z,100401.25
2023-05-11T09:31:39.268Z,100379.56
2023-05-11T09:35:44.739Z,100385.41
2023-05-11T09:44:05.418Z,100395.78
2023-05-11T09:48:15.437Z,100400.16
2023-05-11T09:52:21.216Z,100393.28
2023-05-11T09:56:24.245Z,100380.75
2023-05-11T10:00:28.582Z,100355.81
2023-05-11T10:04:31.660Z,100351.84
2023-05-11T10:08:34.728Z,100350.94
2023-05-11T10:12:38.718Z,100345.06
2023-05-11T10:16:44.431Z,100328.72
2023-05-11T10:20:48.082Z,100342.09
2023-05-11T10:24:52.331Z,100342.53
2023-05-11T10:28:55.409Z,100324.69
2023-05-11T10:33:00.448Z,100331.66
2023-05-11T10:37:03.587Z,100314.31
2023-05-11T10:41:18.566Z,100312.84
2023-05-11T10:45:27.094Z,100311.66
2023-05-11T10:49:42.787Z,100324.56
2023-05-11T10:54:07.896Z,100308.88
2023-05-11T10:58:14.850Z,100306.63
2023-05-11T11:02:19.089Z,100302.06
2023-05-11T11:06:28.837Z,100315.38
2023-05-11T11:10:33.943Z,100301.75
2023-05-11T11:14:56.065Z,100313.03
2023-05-11T11:19:38.959Z,100308.38
2023-05-11T11:23:51.457Z,100297.38
2023-05-11T11:28:00.023Z,100301.19
2023-05-11T11:32:27.982Z,100305.53
2023-05-11T11:37:10.271Z,100299.59
2023-05-11T11:41:30.233Z,100300.63
2023-05-11T11:45:34.518Z,100299.28
2023-05-11T11:49:38.572Z,100301.72
2023-05-11T11:54:08.983Z,100297.78
2023-05-11T11:58:13.461Z,100293.97
2023-05-11T12:02:17.938Z,100291.97
2023-05-11T12:06:26.796Z,100308.84
2023-05-11T12:10:30.127Z,100311.75
2023-05-11T12:14:35.273Z,100291.19
2023-05-11T12:18:38.660Z,100288.19
2023-05-11T12:22:42.207Z,100285.09
2023-05-11T12:26:44.964Z,100283.34
2023-05-11T12:30:58.466Z,100281.53
2023-05-11T12:35:05.462Z,100281.03
2023-05-11T12:39:08.736Z,100267.56
2023-05-11T12:43:19.017Z,100271.88
2023-05-11T12:47:23.908Z,100264.38
2023-05-11T12:51:47.466Z,100270.78
2023-05-11T12:55:59.571Z,100265.81
2023-05-11T13:00:13.300Z,100260.69
2023-05-11T13:04:18.955Z,100268.50
2023-05-11T13:08:21.602Z,100248.56
2023-05-11T13:12:26.022Z,100254.78
2023-05-11T13:16:30.258Z,100247.50
2023-05-11T13:20:37.103Z,100241.94
2023-05-11T13:24:40.040Z,100250.22
2023-05-11T13:28:42.840Z,100243.16
2023-05-11T13:32:46.364Z,100254.88
2023-05-11T13:36:50.951Z,100252.88
2023-05-11T13:40:53.909Z,100247.16
2023-05-11T13:44:56.918Z,100239.44
2023-05-11T13:49:00.624Z,100239.47
2023-05-11T13:53:05.058Z,100228.94
2023-05-11T13:57:11.063Z,100236.91
2023-05-11T14:01:14.020Z,100238.66
2023-05-11T14:05:17.820Z,100223.94
2023-05-11T14:09:23.379Z,100227.25
2023-05-11T14:13:26.730Z,100227.72
2023-05-11T14:17:32.803Z,100234.75
2023-05-11T14:21:35.987Z,100213.63
2023-05-11T14:25:40.495Z,100225.50
2023-05-11T14:29:44.139Z,100234.66
2023-05-11T14:33:47.123Z,100221.03
2023-05-11T14:37:49.536Z,100212.56
2023-05-11T14:41:54.053Z,100212.16
2023-05-11T14:45:56.999Z,100215.69
2023-05-11T14:50:00.570Z,100216.81
2023-05-11T14:54:06.052Z,100216.97
2023-05-11T14:58:10.819Z,100210.09
2023-05-11T15:02:14.068Z,100214.19
2023-05-11T15:06:21.345Z,100206.91
2023-05-11T15:10:24.412Z,100235.41
2023-05-11T15:14:29.306Z,100222.72
2023-05-11T15:18:33.677Z,100211.47
2023-05-11T15:22:41.427Z,100215.84
2023-05-11T15:26:44.463Z,100216.25
2023-05-11T15:30:48.702Z,100222.91
2023-05-11T15:34:59.716Z,100221.94
2023-05-11T15:39:03.048Z,100211.16
2023-05-11T15:43:05.770Z,100216.94
2023-05-11T15:47:10.399Z,100221.00
2023-05-11T15:51:14.424Z,100218.50
2023-05-11T15:55:16.901Z,100221.47
2023-05-11T15:59:20.228Z,100228.38
2023-05-11T16:03:24.770Z,100231.59
2023-05-11T16:07:30.662Z,100222.75
2023-05-11T16:11:33.605Z,100224.44
2023-05-11T16:15:36.492Z,100223.63
2023-05-11T16:19:42.722Z,100220.94
2023-05-11T16:23:45.882Z,100224.31
2023-05-11T16:27:48.659Z,100220.22
2023-05-11T16:31:51.926Z,100227.28
2023-05-11T16:35:56.394Z,100223.19
2023-05-11T16:39:59.234Z,100223.75
2023-05-11T16:44:02.519Z,100219.34
2023-05-11T16:48:07.096Z,100209.81
2023-05-11T16:52:11.559Z,100230.03
2023-05-11T16:56:15.065Z,100221.28
2023-05-11T17:00:19.082Z,100230.25
2023-05-11T17:04:21.727Z,100225.03
2023-05-11T17:08:26.096Z,100226.88
2023-05-11T17:12:35.810Z,100223.44
2023-05-11T17:16:39.044Z,100225.25
2023-05-11T17:20:41.801Z,100228.59
2023-05-11T17:24:46.959Z,100229.91
2023-05-11T17:28:49.928Z,100235.31
2023-05-11T17:32:53.636Z,100244.59
2023-05-11T17:36:57.231Z,100245.63
2023-05-11T17:41:05.642Z,100240.88
2023-05-11T17:45:10.438Z,100247.34
2023-05-11T17:49:14.118Z,100246.53
2023-05-11T17:53:17.240Z,100245.97
2023-05-11T17:57:23.605Z,100251.19
2023-05-11T18:01:27.603Z,100249.16
2023-05-11T18:05:44.858Z,100255.81
2023-05-11T18:09:51.028Z,100265.59
2023-05-11T18:13:58.272Z,100266.00
2023-05-11T18:18:02.554Z,100269.19
2023-05-11T18:22:08.115Z,100271.06
2023-05-11T18:26:11.398Z,100270.53
2023-05-11T18:30:16.322Z,100273.66
2023-05-11T18:34:20.549Z,100282.13
2023-05-11T18:38:23.596Z,100282.53
2023-05-11T18:42:26.785Z,100287.91
2023-05-11T18:46:31.106Z,100288.75
2023-05-11T18:50:34.305Z,100285.63
2023-05-11T18:54:37.291Z,100289.03
2023-05-11T18:58:40.566Z,100291.44
2023-05-11T19:02:48.144Z,100293.88
2023-05-11T19:06:51.269Z,100300.41
2023-05-11T19:10:53.957Z,100311.34
2023-05-11T19:14:57.328Z,100304.94
2023-05-11T19:19:05.551Z,100320.25
2023-05-11T19:23:09.089Z,100322.69
2023-05-11T19:27:12.309Z,100321.56
2023-05-11T19:31:15.513Z,100326.66
2023-05-11T19:35:20.624Z,100322.13
2023-05-11T19:39:23.647Z,100323.19
2023-05-11T19:43:26.944Z,100327.69
2023-05-11T19:47:30.220Z,100331.09
2023-05-11T19:51:34.172Z,100329.22
2023-05-11T19:55:37.313Z,100333.63
2023-05-11T19:59:39.942Z,100332.41
2023-05-11T20:03:43.177Z,100331.47
2023-05-11T20:07:47.653Z,100334.25
2023-05-11T20:11:50.584Z,100335.25
2023-05-11T20:15:53.352Z,100334.16
2023-05-11T20:19:56.615Z,100341.91
2023-05-11T20:24:01.052Z,100348.97
2023-05-11T20:28:03.975Z,100343.69
2023-05-11T20:32:07.783Z,100352.16
2023-05-11T20:36:10.783Z,100354.00
2023-05-11T20:40:15.869Z,100349.66
2023-05-11T20:44:19.167Z,100344.50
2023-05-11T20:48:35.946Z,100346.47
2023-05-11T20:52:42.703Z,100346.53
2023-05-11T20:56:47.820Z,100345.69
2023-05-11T21:00:52.908Z,100346.13
2023-05-11T21:05:01.910Z,100350.50
2023-05-11T21:09:07.707Z,100361.91
2023-05-11T21:13:13.398Z,100362.59
2023-05-11T21:17:16.775Z,100366.06
2023-05-11T21:21:24.002Z,100370.81
2023-05-11T21:25:27.196Z,100374.44
2023-05-11T21:29:33.978Z,100370.78
2023-05-11T21:33:37.776Z,100371.88
2023-05-11T21:37:41.015Z,100381.53
2023-05-11T21:41:44.275Z,100376.66
2023-05-11T21:45:48.889Z,100378.66
2023-05-11T21:49:54.368Z,100378.09
2023-05-11T21:53:57.321Z,100382.78
2023-05-11T21:58:00.264Z,100378.88
2023-05-11T22:02:04.869Z,100381.78
2023-05-11T22:06:10.550Z,100384.50
2023-05-11T22:10:13.810Z,100381.94
2023-05-11T22:14:16.797Z,100387.38
2023-05-11T22:18:21.723Z,100389.00
2023-05-11T22:22:24.914Z,100393.34
2023-05-11T22:26:28.136Z,100397.94
2023-05-11T22:30:30.669Z,100403.00
2023-05-11T22:34:35.093Z,100400.31
2023-05-11T22:38:38.296Z,100407.88
2023-05-11T22:42:40.638Z,100404.13
2023-05-11T22:46:43.788Z,100397.72
2023-05-11T22:50:47.871Z,100403.28
2023-05-11T22:54:55.376Z,100399.84
2023-05-11T22:58:59.989Z,100411.31
2023-05-11T23:03:03.716Z,100405.75
2023-05-11T23:07:12.304Z,100405.41
2023-05-11T23:11:15.550Z,100402.53
2023-05-11T23:15:18.400Z,100395.72
2023-05-11T23:19:21.910Z,100401.25
2023-05-11T23:23:26.970Z,100407.91
2023-05-11T23:27:30.019Z,100401.50
2023-05-11T23:31:34.488Z,100398.25
2023-05-11T23:35:37.646Z,100399.66
2023-05-11T23:39:42.163Z,100393.81
2023-05-11T23:43:45.281Z,100393.38
2023-05-11T23:47:48.334Z,100397.97
2023-05-11T23:51:51.576Z,100402.16
2023-05-11T23:55:55.949Z,100402.06
2023-05-11T23:59:59.186Z,100403.34
